createdAt,value
2018-05-14T00:00:18.184Z,0
2018-05-14T00:00:44.326Z,0
2018-05-14T00:01:10.483Z,0
2018-05-14T00:01:36.653Z,0
2018-05-14T00:02:02.801Z,0
2018-05-14T00:02:28.963Z,0
2018-05-14T00:02:55.113Z,0
2018-05-14T00:03:21.291Z,0
2018-05-14T00:03:47.563Z,0
2018-05-14T00:04:13.624Z,0
2018-05-14T00:04:39.768Z,0
2018-05-14T00:05:05.954Z,0
2018-05-14T00:05:32.124Z,0
2018-05-14T00:05:58.277Z,0
2018-05-14T00:06:24.427Z,0
2018-05-14T00:06:50.607Z,0
2018-05-14T00:07:16.743Z,0
2018-05-14T00:07:42.878Z,0
2018-05-14T00:08:09.052Z,0
2018-05-14T00:08:35.204Z,0
2018-05-14T00:09:01.342Z,0
2018-05-14T00:09:27.505Z,0
2018-05-14T00:09:53.668Z,0
2018-05-14T00:10:19.842Z,0
2018-05-14T00:10:45.978Z,0
2018-05-14T00:11:12.146Z,0
2018-05-14T00:11:38.308Z,0
2018-05-14T00:12:04.434Z,0
2018-05-14T00:12:30.657Z,0
2018-05-14T00:12:56.814Z,0
2018-05-14T00:13:22.981Z,0
2018-05-14T00:13:49.108Z,0
2018-05-14T00:14:15.250Z,0
2018-05-14T00:14:41.407Z,0
2018-05-14T00:15:07.566Z,0
2018-05-14T00:15:33.718Z,0
2018-05-14T00:15:59.862Z,0
2018-05-14T00:16:26.015Z,0
2018-05-14T00:16:52.187Z,0
2018-05-14T00:17:18.333Z,0
2018-05-14T00:17:44.467Z,0
2018-05-14T00:18:10.615Z,0
2018-05-14T00:18:36.765Z,0
2018-05-14T00:19:02.927Z,0
2018-05-14T00:19:29.109Z,0
2018-05-14T00:19:55.274Z,0
2018-05-14T00:20:21.413Z,0
2018-05-14T00:20:47.552Z,0
2018-05-14T00:21:13.723Z,0
2018-05-14T00:21:39.873Z,0
2018-05-14T00:22:06.033Z,0
2018-05-14T00:22:32.202Z,0
2018-05-14T00:22:58.413Z,0
2018-05-14T00:23:24.576Z,0
2018-05-14T00:23:50.713Z,0
2018-05-14T00:24:16.874Z,0
2018-05-14T00:24:43.054Z,0
2018-05-14T00:25:09.194Z,0
2018-05-14T00:25:35.340Z,0
2018-05-14T00:26:01.483Z,0
2018-05-14T00:26:27.664Z,0
2018-05-14T00:26:53.818Z,0
2018-05-14T00:27:20.010Z,0
2018-05-14T00:27:46.154Z,0
2018-05-14T00:28:12.326Z,0
2018-05-14T00:28:38.465Z,0
2018-05-14T00:29:04.664Z,0
2018-05-14T00:29:30.838Z,0
2018-05-14T00:29:57.009Z,0
2018-05-14T00:30:23.196Z,0
2018-05-14T00:30:49.364Z,0
2018-05-14T00:31:15.522Z,0
2018-05-14T00:31:41.658Z,0
2018-05-14T00:32:07.832Z,0
2018-05-14T00:32:33.991Z,0
2018-05-14T00:33:00.130Z,0
2018-05-14T00:33:26.271Z,0
2018-05-14T00:33:52.442Z,0
2018-05-14T00:34:18.590Z,0
2018-05-14T00:34:44.736Z,0
2018-05-14T00:35:10.875Z,0
2018-05-14T00:35:37.077Z,0
2018-05-14T00:36:03.323Z,0
2018-05-14T00:36:29.482Z,0
2018-05-14T00:36:55.644Z,0
2018-05-14T00:37:21.779Z,0
2018-05-14T00:37:48.017Z,0
2018-05-14T00:38:14.210Z,0
2018-05-14T00:38:40.349Z,0
2018-05-14T00:39:06.521Z,0
2018-05-14T00:39:32.663Z,0
2018-05-14T00:39:58.809Z,0
2018-05-14T00:40:24.950Z,0
2018-05-14T00:40:51.093Z,0
2018-05-14T00:41:17.230Z,0
2018-05-14T00:41:43.364Z,0
2018-05-14T00:42:09.532Z,0
2018-05-14T00:42:35.676Z,0
2018-05-14T00:43:01.822Z,0
2018-05-14T00:43:27.987Z,0
2018-05-14T00:43:54.129Z,0
2018-05-14T00:44:20.268Z,0
2018-05-14T00:44:46.422Z,0
2018-05-14T00:45:12.567Z,0
2018-05-14T00:45:38.701Z,0
2018-05-14T00:46:04.845Z,0
2018-05-14T00:46:30.985Z,0
2018-05-14T00:46:57.117Z,0
2018-05-14T00:47:23.260Z,0
2018-05-14T00:47:49.409Z,0
2018-05-14T00:48:15.571Z,0
2018-05-14T00:48:41.757Z,0
2018-05-14T00:49:07.898Z,0
2018-05-14T00:49:34.143Z,0
2018-05-14T00:50:00.204Z,0
2018-05-14T00:50:26.345Z,0
2018-05-14T00:50:52.491Z,0
2018-05-14T00:51:18.629Z,0
2018-05-14T00:51:44.768Z,0
2018-05-14T00:52:10.904Z,0
2018-05-14T00:52:37.042Z,0
2018-05-14T00:53:03.230Z,0
2018-05-14T00:53:29.376Z,0
2018-05-14T00:53:55.509Z,0
2018-05-14T00:54:21.652Z,0
2018-05-14T00:54:47.796Z,0
2018-05-14T00:55:13.937Z,0
2018-05-14T00:55:40.074Z,0
2018-05-14T00:56:06.213Z,0
2018-05-14T00:56:32.346Z,0
2018-05-14T00:56:58.490Z,0
2018-05-14T00:57:24.633Z,0
2018-05-14T00:57:50.768Z,0
2018-05-14T00:58:16.904Z,0
2018-05-14T00:58:43.044Z,0
2018-05-14T00:59:09.188Z,0
2018-05-14T00:59:35.327Z,0
2018-05-14T01:00:01.470Z,0
2018-05-14T01:00:27.611Z,0
2018-05-14T01:00:53.745Z,0
2018-05-14T01:01:19.905Z,0
2018-05-14T01:01:46.049Z,0
2018-05-14T01:02:12.187Z,0
2018-05-14T01:02:38.326Z,0
2018-05-14T01:03:04.468Z,0
2018-05-14T01:03:30.623Z,0
2018-05-14T01:03:56.765Z,0
2018-05-14T01:04:22.926Z,0
2018-05-14T01:04:49.068Z,0
2018-05-14T01:05:15.209Z,0
2018-05-14T01:05:41.346Z,0
2018-05-14T01:06:07.515Z,0
2018-05-14T01:06:33.698Z,0
2018-05-14T01:06:59.815Z,0
2018-05-14T01:07:25.958Z,0
2018-05-14T01:07:52.098Z,0
2018-05-14T01:08:18.231Z,0
2018-05-14T01:08:44.370Z,0
2018-05-14T01:09:10.509Z,0
2018-05-14T01:09:36.650Z,0
2018-05-14T01:10:02.793Z,0
2018-05-14T01:10:28.955Z,0
2018-05-14T01:10:55.097Z,0
2018-05-14T01:11:21.237Z,0
2018-05-14T01:11:47.376Z,0
2018-05-14T01:12:13.518Z,0
2018-05-14T01:12:39.656Z,0
2018-05-14T01:13:05.796Z,0
2018-05-14T01:13:31.933Z,0
2018-05-14T01:13:58.074Z,0
2018-05-14T01:14:24.241Z,0
2018-05-14T01:14:50.383Z,0
2018-05-14T01:15:16.517Z,0
2018-05-14T01:15:42.657Z,0
2018-05-14T01:16:08.799Z,0
2018-05-14T01:16:34.938Z,0
2018-05-14T01:17:01.078Z,0
2018-05-14T01:17:27.211Z,0
2018-05-14T01:17:53.347Z,0
2018-05-14T01:18:19.494Z,0
2018-05-14T01:18:45.626Z,0
2018-05-14T01:19:11.769Z,0
2018-05-14T01:19:37.902Z,0
2018-05-14T01:20:04.048Z,0
2018-05-14T01:20:30.210Z,0
2018-05-14T01:20:56.378Z,0
2018-05-14T01:21:22.512Z,0
2018-05-14T01:21:48.654Z,0
2018-05-14T01:22:14.793Z,0
2018-05-14T01:22:40.962Z,0
2018-05-14T01:23:07.131Z,0
2018-05-14T01:23:33.279Z,0
2018-05-14T01:23:59.423Z,0
2018-05-14T01:24:25.560Z,0
2018-05-14T01:24:51.724Z,0
2018-05-14T01:25:17.861Z,0
2018-05-14T01:25:44.006Z,0
2018-05-14T01:26:10.139Z,0
2018-05-14T01:26:36.278Z,0
2018-05-14T01:27:02.414Z,0
2018-05-14T01:27:28.577Z,0
2018-05-14T01:27:54.772Z,0
2018-05-14T01:28:20.932Z,0
2018-05-14T01:28:47.072Z,0
2018-05-14T01:29:13.215Z,0
2018-05-14T01:29:39.350Z,0
2018-05-14T01:30:05.489Z,0
2018-05-14T01:30:31.654Z,0
2018-05-14T01:30:57.811Z,0
2018-05-14T01:31:23.949Z,0
2018-05-14T01:31:50.091Z,0
2018-05-14T01:32:16.227Z,0
2018-05-14T01:32:42.369Z,0
2018-05-14T01:33:08.511Z,0
2018-05-14T01:33:34.651Z,0
2018-05-14T01:34:00.789Z,0
2018-05-14T01:34:26.949Z,0
2018-05-14T01:34:53.105Z,0
2018-05-14T01:35:19.247Z,0
2018-05-14T01:35:45.384Z,0
2018-05-14T01:36:11.531Z,0
2018-05-14T01:36:37.676Z,0
2018-05-14T01:37:03.838Z,0
2018-05-14T01:37:30.006Z,0
2018-05-14T01:37:56.147Z,0
2018-05-14T01:38:22.301Z,0
2018-05-14T01:38:48.444Z,0
2018-05-14T01:39:14.610Z,0
2018-05-14T01:39:40.753Z,0
2018-05-14T01:40:06.922Z,0
2018-05-14T01:40:33.080Z,0
2018-05-14T01:40:59.216Z,0
2018-05-14T01:41:25.361Z,0
2018-05-14T01:41:51.522Z,0
2018-05-14T01:42:17.690Z,0
2018-05-14T01:42:43.831Z,0
2018-05-14T01:43:09.968Z,0
2018-05-14T01:43:36.108Z,0
2018-05-14T01:44:02.245Z,0
2018-05-14T01:44:28.412Z,0
2018-05-14T01:44:54.557Z,0
2018-05-14T01:45:20.694Z,0
2018-05-14T01:45:46.838Z,0
2018-05-14T01:46:12.970Z,0
2018-05-14T01:46:39.111Z,0
2018-05-14T01:47:05.255Z,0
2018-05-14T01:47:31.390Z,0
2018-05-14T01:47:57.527Z,0
2018-05-14T01:48:23.701Z,0
2018-05-14T01:48:49.864Z,0
2018-05-14T01:49:15.998Z,0
2018-05-14T01:49:42.136Z,0
2018-05-14T01:50:08.304Z,0
2018-05-14T01:50:34.458Z,0
2018-05-14T01:51:00.608Z,0
2018-05-14T01:51:26.744Z,0
2018-05-14T01:51:52.893Z,0
2018-05-14T01:52:19.030Z,0
2018-05-14T01:52:45.183Z,0
2018-05-14T01:53:11.339Z,0
2018-05-14T01:53:37.480Z,0
2018-05-14T01:54:03.629Z,0
2018-05-14T01:54:29.786Z,0
2018-05-14T01:54:55.942Z,0
2018-05-14T01:55:22.087Z,0
2018-05-14T01:55:48.225Z,0
2018-05-14T01:56:14.366Z,0
2018-05-14T01:56:40.499Z,0
2018-05-14T01:57:06.648Z,0
2018-05-14T01:57:32.783Z,0
2018-05-14T01:57:58.926Z,0
2018-05-14T01:58:25.073Z,0
2018-05-14T01:58:51.222Z,0
2018-05-14T01:59:17.373Z,0
2018-05-14T01:59:43.540Z,0
2018-05-14T02:00:09.674Z,0
2018-05-14T02:00:35.808Z,0
2018-05-14T02:01:01.959Z,0
2018-05-14T02:01:28.114Z,0
2018-05-14T02:01:54.260Z,0
2018-05-14T02:02:20.393Z,0
2018-05-14T02:02:46.539Z,0
2018-05-14T02:03:12.673Z,0
2018-05-14T02:03:38.818Z,0
2018-05-14T02:04:04.957Z,0
2018-05-14T02:04:31.113Z,0
2018-05-14T02:04:57.243Z,0
2018-05-14T02:05:23.378Z,0
2018-05-14T02:05:49.539Z,0
2018-05-14T02:06:15.684Z,0
2018-05-14T02:06:41.815Z,0
2018-05-14T02:07:07.952Z,0
2018-05-14T02:07:34.101Z,0
2018-05-14T02:08:00.258Z,0
2018-05-14T02:08:26.396Z,0
2018-05-14T02:08:52.537Z,0
2018-05-14T02:09:18.673Z,0
2018-05-14T02:09:44.806Z,0
2018-05-14T02:10:10.952Z,0
2018-05-14T02:10:37.111Z,0
2018-05-14T02:11:03.252Z,0
2018-05-14T02:11:29.379Z,0
2018-05-14T02:11:55.520Z,0
2018-05-14T02:12:21.662Z,0
2018-05-14T02:12:47.800Z,0
2018-05-14T02:13:13.941Z,0
2018-05-14T02:13:40.084Z,0
2018-05-14T02:14:06.223Z,0
2018-05-14T02:14:32.358Z,0
2018-05-14T02:14:58.519Z,0
2018-05-14T02:15:24.655Z,0
2018-05-14T02:15:50.794Z,0
2018-05-14T02:16:16.934Z,0
2018-05-14T02:16:43.098Z,0
2018-05-14T02:17:09.236Z,0
2018-05-14T02:17:35.398Z,0
2018-05-14T02:18:01.535Z,0
2018-05-14T02:18:27.694Z,0
2018-05-14T02:18:53.847Z,0
2018-05-14T02:19:19.991Z,0
2018-05-14T02:19:46.134Z,0
2018-05-14T02:20:12.266Z,0
2018-05-14T02:20:38.404Z,0
2018-05-14T02:21:04.548Z,0
2018-05-14T02:21:30.711Z,0
2018-05-14T02:21:56.856Z,0
2018-05-14T02:22:22.990Z,0
2018-05-14T02:22:49.129Z,0
2018-05-14T02:23:15.270Z,0
2018-05-14T02:23:41.436Z,0
2018-05-14T02:24:07.566Z,0
2018-05-14T02:24:33.697Z,0
2018-05-14T02:24:59.844Z,0
2018-05-14T02:25:26.008Z,0
2018-05-14T02:25:52.166Z,0
2018-05-14T02:26:18.333Z,0
2018-05-14T02:26:44.468Z,0
2018-05-14T02:27:10.619Z,0
2018-05-14T02:27:36.754Z,0
2018-05-14T02:28:02.914Z,0
2018-05-14T02:28:29.056Z,0
2018-05-14T02:28:55.200Z,0
2018-05-14T02:29:21.432Z,0
2018-05-14T02:29:47.498Z,0
2018-05-14T02:30:13.691Z,0
2018-05-14T02:30:39.827Z,0
2018-05-14T02:31:06.009Z,0
2018-05-14T02:31:32.195Z,0
2018-05-14T02:31:58.363Z,0
2018-05-14T02:32:24.524Z,0
2018-05-14T02:32:50.667Z,0
2018-05-14T02:33:16.830Z,0
2018-05-14T02:33:42.993Z,0
2018-05-14T02:34:09.153Z,0
2018-05-14T02:34:35.374Z,0
2018-05-14T02:35:01.539Z,0
2018-05-14T02:35:27.676Z,0
2018-05-14T02:35:53.870Z,0
2018-05-14T02:36:20.026Z,0
2018-05-14T02:36:46.197Z,0
2018-05-14T02:37:12.390Z,0
2018-05-14T02:37:38.568Z,0
2018-05-14T02:38:04.703Z,0
2018-05-14T02:38:30.869Z,0
2018-05-14T02:38:57.137Z,0
2018-05-14T02:39:23.245Z,0
2018-05-14T02:39:49.409Z,0
2018-05-14T02:40:15.549Z,0
2018-05-14T02:40:41.689Z,0
2018-05-14T02:41:07.827Z,0
2018-05-14T02:41:33.963Z,0
2018-05-14T02:42:00.130Z,0
2018-05-14T02:42:26.294Z,0
2018-05-14T02:42:52.462Z,0
2018-05-14T02:43:18.627Z,0
2018-05-14T02:43:44.788Z,0
2018-05-14T02:44:10.975Z,0
2018-05-14T02:44:37.108Z,0
2018-05-14T02:45:03.297Z,0
2018-05-14T02:45:29.459Z,0
2018-05-14T02:45:55.646Z,0
2018-05-14T02:46:21.858Z,0
2018-05-14T02:46:48.023Z,0
2018-05-14T02:47:14.187Z,0
2018-05-14T02:47:40.324Z,0
2018-05-14T02:48:06.458Z,0
2018-05-14T02:48:32.600Z,0
2018-05-14T02:48:58.795Z,0
2018-05-14T02:49:24.922Z,0
2018-05-14T02:49:51.089Z,0
2018-05-14T02:50:17.232Z,0
2018-05-14T02:50:43.390Z,0
2018-05-14T02:51:09.584Z,0
2018-05-14T02:51:35.745Z,0
2018-05-14T02:52:01.909Z,0
2018-05-14T02:52:28.077Z,0
2018-05-14T02:52:54.231Z,0
2018-05-14T02:53:20.397Z,0
2018-05-14T02:53:46.552Z,0
2018-05-14T02:54:12.720Z,0
2018-05-14T02:54:38.860Z,0
2018-05-14T02:55:05.018Z,0
2018-05-14T02:55:31.186Z,0
2018-05-14T02:55:57.327Z,0
2018-05-14T02:56:23.514Z,4
2018-05-14T02:56:49.702Z,4
2018-05-14T02:57:15.819Z,4
2018-05-14T02:57:41.954Z,4
2018-05-14T02:58:08.141Z,4
2018-05-14T02:58:34.283Z,4
2018-05-14T02:59:00.496Z,0
2018-05-14T02:59:26.633Z,0
2018-05-14T02:59:52.775Z,0
2018-05-14T03:00:18.936Z,0
2018-05-14T03:00:45.071Z,4
2018-05-14T03:01:11.228Z,4
2018-05-14T03:01:37.376Z,4
2018-05-14T03:02:03.540Z,4
2018-05-14T03:02:29.675Z,4
2018-05-14T03:02:55.834Z,4
2018-05-14T03:03:22.002Z,0
2018-05-14T03:03:48.160Z,4
2018-05-14T03:04:14.324Z,4
2018-05-14T03:04:40.533Z,4
2018-05-14T03:05:06.716Z,4
2018-05-14T03:05:32.886Z,4
2018-05-14T03:05:59.105Z,4
2018-05-14T03:06:25.597Z,4
2018-05-14T03:06:51.743Z,8
2018-05-14T03:07:18.035Z,4
2018-05-14T03:07:44.202Z,4
2018-05-14T03:08:10.392Z,8
2018-05-14T03:08:36.851Z,4
2018-05-14T03:09:03.189Z,8
2018-05-14T03:09:29.342Z,4
2018-05-14T03:09:55.592Z,8
2018-05-14T03:10:22.023Z,8
2018-05-14T03:10:48.294Z,8
2018-05-14T03:11:14.436Z,8
2018-05-14T03:11:40.582Z,8
2018-05-14T03:12:06.720Z,8
2018-05-14T03:12:32.887Z,12
2018-05-14T03:12:59.027Z,12
2018-05-14T03:13:25.167Z,12
2018-05-14T03:13:51.330Z,12
2018-05-14T03:14:17.491Z,12
2018-05-14T03:14:43.656Z,12
2018-05-14T03:15:09.839Z,12
2018-05-14T03:15:36.004Z,16
2018-05-14T03:16:02.168Z,16
2018-05-14T03:16:28.299Z,16
2018-05-14T03:16:54.443Z,16
2018-05-14T03:17:20.609Z,20
2018-05-14T03:17:46.747Z,20
2018-05-14T03:18:12.937Z,24
2018-05-14T03:18:39.072Z,24
2018-05-14T03:19:05.210Z,24
2018-05-14T03:19:31.352Z,28
2018-05-14T03:19:57.491Z,28
2018-05-14T03:20:23.638Z,28
2018-05-14T03:20:49.774Z,32
2018-05-14T03:21:15.910Z,36
2018-05-14T03:21:42.075Z,40
2018-05-14T03:22:08.217Z,40
2018-05-14T03:22:34.401Z,44
2018-05-14T03:23:00.567Z,44
2018-05-14T03:23:26.700Z,44
2018-05-14T03:23:52.843Z,48
2018-05-14T03:24:18.985Z,48
2018-05-14T03:24:45.154Z,52
2018-05-14T03:25:11.342Z,56
2018-05-14T03:25:37.527Z,60
2018-05-14T03:26:03.665Z,64
2018-05-14T03:26:29.801Z,68
2018-05-14T03:26:55.942Z,72
2018-05-14T03:27:22.114Z,76
2018-05-14T03:27:48.246Z,76
2018-05-14T03:28:14.388Z,80
2018-05-14T03:28:40.527Z,84
2018-05-14T03:29:06.663Z,92
2018-05-14T03:29:32.810Z,92
2018-05-14T03:29:58.953Z,96
2018-05-14T03:30:25.135Z,104
2018-05-14T03:30:51.280Z,108
2018-05-14T03:31:17.446Z,116
2018-05-14T03:31:43.613Z,124
2018-05-14T03:32:09.749Z,132
2018-05-14T03:32:35.886Z,140
2018-05-14T03:33:02.027Z,148
2018-05-14T03:33:28.173Z,156
2018-05-14T03:33:54.314Z,160
2018-05-14T03:34:20.479Z,168
2018-05-14T03:34:46.612Z,172
2018-05-14T03:35:12.765Z,180
2018-05-14T03:35:38.900Z,180
2018-05-14T03:36:05.032Z,180
2018-05-14T03:36:31.207Z,188
2018-05-14T03:36:57.388Z,188
2018-05-14T03:37:23.550Z,200
2018-05-14T03:37:49.687Z,208
2018-05-14T03:38:15.823Z,216
2018-05-14T03:38:41.959Z,220
2018-05-14T03:39:08.098Z,220
2018-05-14T03:39:34.245Z,228
2018-05-14T03:40:00.415Z,236
2018-05-14T03:40:26.548Z,248
2018-05-14T03:40:52.691Z,256
2018-05-14T03:41:18.830Z,268
2018-05-14T03:41:44.998Z,292
2018-05-14T03:42:11.166Z,304
2018-05-14T03:42:37.303Z,308
2018-05-14T03:43:03.439Z,320
2018-05-14T03:43:29.587Z,332
2018-05-14T03:43:55.733Z,336
2018-05-14T03:44:21.887Z,340
2018-05-14T03:44:48.027Z,340
2018-05-14T03:45:14.174Z,340
2018-05-14T03:45:40.360Z,340
2018-05-14T03:46:06.528Z,332
2018-05-14T03:46:32.688Z,316
2018-05-14T03:46:58.850Z,308
2018-05-14T03:47:24.985Z,316
2018-05-14T03:47:51.131Z,332
2018-05-14T03:48:17.274Z,348
2018-05-14T03:48:43.410Z,356
2018-05-14T03:49:09.547Z,364
2018-05-14T03:49:35.684Z,376
2018-05-14T03:50:01.874Z,392
2018-05-14T03:50:28.057Z,400
2018-05-14T03:50:54.198Z,404
2018-05-14T03:51:20.348Z,416
2018-05-14T03:51:46.531Z,444
2018-05-14T03:52:12.670Z,472
2018-05-14T03:52:38.808Z,496
2018-05-14T03:53:04.947Z,520
2018-05-14T03:53:31.111Z,532
2018-05-14T03:53:57.246Z,544
2018-05-14T03:54:23.386Z,564
2018-05-14T03:54:49.517Z,580
2018-05-14T03:55:15.706Z,588
2018-05-14T03:55:41.843Z,588
2018-05-14T03:56:07.984Z,572
2018-05-14T03:56:34.148Z,556
2018-05-14T03:57:00.288Z,548
2018-05-14T03:57:26.422Z,536
2018-05-14T03:57:52.567Z,536
2018-05-14T03:58:18.723Z,532
2018-05-14T03:58:44.861Z,520
2018-05-14T03:59:11.004Z,508
2018-05-14T03:59:37.144Z,504
2018-05-14T04:00:03.304Z,516
2018-05-14T04:00:29.475Z,536
2018-05-14T04:00:55.635Z,544
2018-05-14T04:01:21.767Z,540
2018-05-14T04:01:47.912Z,532
2018-05-14T04:02:14.084Z,540
2018-05-14T04:02:40.231Z,576
2018-05-14T04:03:06.381Z,640
2018-05-14T04:03:32.546Z,720
2018-05-14T04:03:58.685Z,816
2018-05-14T04:04:24.829Z,888
2018-05-14T04:04:50.970Z,924
2018-05-14T04:05:17.106Z,964
2018-05-14T04:05:43.248Z,1008
2018-05-14T04:06:09.405Z,1032
2018-05-14T04:06:35.553Z,1048
2018-05-14T04:07:01.706Z,1064
2018-05-14T04:07:27.859Z,1052
2018-05-14T04:07:54.003Z,1012
2018-05-14T04:08:20.143Z,964
2018-05-14T04:08:46.320Z,920
2018-05-14T04:09:12.485Z,888
2018-05-14T04:09:38.651Z,868
2018-05-14T04:10:04.813Z,856
2018-05-14T04:10:30.957Z,864
2018-05-14T04:10:57.105Z,908
2018-05-14T04:11:23.242Z,984
2018-05-14T04:11:49.376Z,1036
2018-05-14T04:12:15.520Z,1040
2018-05-14T04:12:41.662Z,1016
2018-05-14T04:13:07.824Z,984
2018-05-14T04:13:33.960Z,928
2018-05-14T04:14:00.123Z,872
2018-05-14T04:14:26.273Z,848
2018-05-14T04:14:52.410Z,844
2018-05-14T04:15:18.542Z,860
2018-05-14T04:15:44.684Z,912
2018-05-14T04:16:10.823Z,984
2018-05-14T04:16:36.991Z,1068
2018-05-14T04:17:03.110Z,1188
2018-05-14T04:17:29.250Z,1312
2018-05-14T04:17:55.382Z,1320
2018-05-14T04:18:21.549Z,1244
2018-05-14T04:18:47.693Z,1172
2018-05-14T04:19:13.834Z,1168
2018-05-14T04:19:39.997Z,1184
2018-05-14T04:20:06.136Z,1196
2018-05-14T04:20:32.279Z,1212
2018-05-14T04:20:58.420Z,1244
2018-05-14T04:21:24.564Z,1312
2018-05-14T04:21:50.703Z,1356
2018-05-14T04:22:16.842Z,1380
2018-05-14T04:22:42.980Z,1440
2018-05-14T04:23:09.139Z,1484
2018-05-14T04:23:35.301Z,1476
2018-05-14T04:24:01.435Z,1392
2018-05-14T04:24:27.673Z,1308
2018-05-14T04:24:53.741Z,1276
2018-05-14T04:25:19.875Z,1252
2018-05-14T04:25:46.014Z,1284
2018-05-14T04:26:12.154Z,1368
2018-05-14T04:26:38.313Z,1448
2018-05-14T04:27:04.479Z,1500
2018-05-14T04:27:30.650Z,1508
2018-05-14T04:27:56.789Z,1480
2018-05-14T04:28:22.928Z,1464
2018-05-14T04:28:49.067Z,1488
2018-05-14T04:29:15.199Z,1572
2018-05-14T04:29:41.338Z,1660
2018-05-14T04:30:07.490Z,1804
2018-05-14T04:30:33.619Z,1936
2018-05-14T04:30:59.777Z,1956
2018-05-14T04:31:25.917Z,1988
2018-05-14T04:31:52.094Z,2008
2018-05-14T04:32:18.252Z,2000
2018-05-14T04:32:44.392Z,1988
2018-05-14T04:33:10.524Z,1968
2018-05-14T04:33:36.669Z,1916
2018-05-14T04:34:02.804Z,1820
2018-05-14T04:34:28.954Z,1712
2018-05-14T04:34:55.089Z,1676
2018-05-14T04:35:21.229Z,1688
2018-05-14T04:35:47.373Z,1728
2018-05-14T04:36:13.511Z,1764
2018-05-14T04:36:39.645Z,1768
2018-05-14T04:37:05.792Z,1776
2018-05-14T04:37:31.931Z,1868
2018-05-14T04:37:58.068Z,2052
2018-05-14T04:38:24.209Z,2220
2018-05-14T04:38:50.356Z,2292
2018-05-14T04:39:16.494Z,2332
2018-05-14T04:39:42.630Z,2388
2018-05-14T04:40:08.766Z,2460
2018-05-14T04:40:34.908Z,2468
2018-05-14T04:41:01.104Z,2496
2018-05-14T04:41:27.241Z,2632
2018-05-14T04:41:53.403Z,2732
2018-05-14T04:42:19.540Z,2804
2018-05-14T04:42:45.680Z,2832
2018-05-14T04:43:11.823Z,2812
2018-05-14T04:43:37.962Z,2776
2018-05-14T04:44:04.102Z,2700
2018-05-14T04:44:30.247Z,2588
2018-05-14T04:44:56.387Z,2528
2018-05-14T04:45:22.524Z,2540
2018-05-14T04:45:48.690Z,2608
2018-05-14T04:46:14.852Z,2644
2018-05-14T04:46:40.988Z,2740
2018-05-14T04:47:07.130Z,2864
2018-05-14T04:47:33.269Z,2972
2018-05-14T04:47:59.437Z,3132
2018-05-14T04:48:25.581Z,3288
2018-05-14T04:48:51.743Z,3372
2018-05-14T04:49:17.880Z,3452
2018-05-14T04:49:44.022Z,3548
2018-05-14T04:50:10.181Z,3672
2018-05-14T04:50:36.324Z,3796
2018-05-14T04:51:02.460Z,3924
2018-05-14T04:51:28.604Z,4184
2018-05-14T04:51:54.772Z,4540
2018-05-14T04:52:21.036Z,4708
2018-05-14T04:52:47.197Z,4624
2018-05-14T04:53:13.345Z,4608
2018-05-14T04:53:39.713Z,4496
2018-05-14T04:54:05.881Z,4088
2018-05-14T04:54:32.046Z,3816
2018-05-14T04:54:58.188Z,3808
2018-05-14T04:55:24.350Z,3884
2018-05-14T04:55:50.489Z,3876
2018-05-14T04:56:16.629Z,4084
2018-05-14T04:56:42.787Z,4376
2018-05-14T04:57:08.949Z,4660
2018-05-14T04:57:35.116Z,4840
2018-05-14T04:58:01.250Z,4760
2018-05-14T04:58:27.396Z,4580
2018-05-14T04:58:53.532Z,4420
2018-05-14T04:59:19.681Z,4252
2018-05-14T04:59:45.808Z,4272
2018-05-14T05:00:11.967Z,4428
2018-05-14T05:00:38.124Z,4604
2018-05-14T05:01:04.260Z,4836
2018-05-14T05:01:30.423Z,5164
2018-05-14T05:01:56.575Z,5464
2018-05-14T05:02:22.744Z,5612
2018-05-14T05:02:48.952Z,5760
2018-05-14T05:03:15.074Z,5984
2018-05-14T05:03:41.239Z,5788
2018-05-14T05:04:07.373Z,5308
2018-05-14T05:04:33.533Z,5016
2018-05-14T05:04:59.693Z,4916
2018-05-14T05:05:25.832Z,5028
2018-05-14T05:05:51.975Z,5248
2018-05-14T05:06:18.119Z,5512
2018-05-14T05:06:44.262Z,5652
2018-05-14T05:07:10.401Z,5636
2018-05-14T05:07:36.546Z,5768
2018-05-14T05:08:02.683Z,5804
2018-05-14T05:08:28.866Z,5992
2018-05-14T05:08:54.981Z,6676
2018-05-14T05:09:21.121Z,7692
2018-05-14T05:09:47.285Z,8508
2018-05-14T05:10:13.456Z,8464
2018-05-14T05:10:39.620Z,8160
2018-05-14T05:11:05.760Z,7580
2018-05-14T05:11:31.995Z,6828
2018-05-14T05:11:58.041Z,6268
2018-05-14T05:12:24.178Z,6020
2018-05-14T05:12:50.335Z,6012
2018-05-14T05:13:16.467Z,5956
2018-05-14T05:13:42.631Z,5892
2018-05-14T05:14:08.797Z,5744
2018-05-14T05:14:34.928Z,5524
2018-05-14T05:15:01.074Z,5376
2018-05-14T05:15:27.207Z,5256
2018-05-14T05:15:53.374Z,5252
2018-05-14T05:16:19.544Z,5268
2018-05-14T05:16:45.683Z,5244
2018-05-14T05:17:11.931Z,5396
2018-05-14T05:17:37.980Z,5864
2018-05-14T05:18:04.144Z,6552
2018-05-14T05:18:30.340Z,6980
2018-05-14T05:18:56.477Z,7356
2018-05-14T05:19:22.619Z,7768
2018-05-14T05:19:48.754Z,8136
2018-05-14T05:20:14.899Z,8616
2018-05-14T05:20:41.031Z,8936
2018-05-14T05:21:07.170Z,8820
2018-05-14T05:21:33.299Z,8548
2018-05-14T05:21:59.444Z,8056
2018-05-14T05:22:25.590Z,7844
2018-05-14T05:22:51.761Z,7804
2018-05-14T05:23:17.866Z,7572
2018-05-14T05:23:44.004Z,7432
2018-05-14T05:24:10.174Z,7608
2018-05-14T05:24:36.334Z,7832
2018-05-14T05:25:02.497Z,7756
2018-05-14T05:25:28.640Z,7728
2018-05-14T05:25:54.782Z,7840
2018-05-14T05:26:20.943Z,8164
2018-05-14T05:26:47.109Z,8092
2018-05-14T05:27:13.276Z,7616
2018-05-14T05:27:39.416Z,7084
2018-05-14T05:28:05.581Z,6748
2018-05-14T05:28:31.726Z,6736
2018-05-14T05:28:57.866Z,6984
2018-05-14T05:29:24.005Z,7488
2018-05-14T05:29:50.143Z,7760
2018-05-14T05:30:16.294Z,7864
2018-05-14T05:30:42.428Z,7596
2018-05-14T05:31:08.565Z,7556
2018-05-14T05:31:34.728Z,7656
2018-05-14T05:32:00.861Z,7528
2018-05-14T05:32:27.028Z,7016
2018-05-14T05:32:53.168Z,6512
2018-05-14T05:33:19.310Z,6368
2018-05-14T05:33:45.448Z,6392
2018-05-14T05:34:11.596Z,6464
2018-05-14T05:34:37.771Z,6492
2018-05-14T05:35:03.869Z,6384
2018-05-14T05:35:30.030Z,6216
2018-05-14T05:35:56.189Z,6136
2018-05-14T05:36:22.331Z,5984
2018-05-14T05:36:48.514Z,5992
2018-05-14T05:37:14.714Z,6184
2018-05-14T05:37:40.880Z,6440
2018-05-14T05:38:06.997Z,6772
2018-05-14T05:38:33.150Z,7308
2018-05-14T05:38:59.285Z,7920
2018-05-14T05:39:25.425Z,8184
2018-05-14T05:39:51.566Z,8024
2018-05-14T05:40:17.710Z,7824
2018-05-14T05:40:43.901Z,7808
2018-05-14T05:41:10.041Z,7960
2018-05-14T05:41:36.180Z,7896
2018-05-14T05:42:02.320Z,7492
2018-05-14T05:42:28.554Z,7504
2018-05-14T05:42:54.602Z,8272
2018-05-14T05:43:20.796Z,9392
2018-05-14T05:43:46.931Z,10216
2018-05-14T05:44:13.077Z,10064
2018-05-14T05:44:39.215Z,10140
2018-05-14T05:45:05.358Z,10212
2018-05-14T05:45:31.495Z,10164
2018-05-14T05:45:57.662Z,10224
2018-05-14T05:46:23.772Z,10372
2018-05-14T05:46:49.917Z,10244
2018-05-14T05:47:16.055Z,9888
2018-05-14T05:47:42.192Z,9616
2018-05-14T05:48:08.330Z,9048
2018-05-14T05:48:34.472Z,8448
2018-05-14T05:49:00.610Z,7984
2018-05-14T05:49:26.752Z,8068
2018-05-14T05:49:52.923Z,8700
2018-05-14T05:50:19.057Z,9396
2018-05-14T05:50:45.198Z,9944
2018-05-14T05:51:11.355Z,10448
2018-05-14T05:51:37.496Z,11208
2018-05-14T05:52:03.636Z,11680
2018-05-14T05:52:29.847Z,11644
2018-05-14T05:52:55.920Z,11028
2018-05-14T05:53:22.058Z,10856
2018-05-14T05:53:48.229Z,10668
2018-05-14T05:54:14.374Z,10060
2018-05-14T05:54:40.516Z,9132
2018-05-14T05:55:06.652Z,8476
2018-05-14T05:55:32.789Z,8664
2018-05-14T05:55:58.930Z,9328
2018-05-14T05:56:25.098Z,9812
2018-05-14T05:56:51.238Z,10080
2018-05-14T05:57:17.431Z,10312
2018-05-14T05:57:43.638Z,10552
2018-05-14T05:58:09.804Z,10420
2018-05-14T05:58:35.949Z,9880
2018-05-14T05:59:02.083Z,9224
2018-05-14T05:59:28.222Z,8804
2018-05-14T05:59:54.391Z,8632
2018-05-14T06:00:20.531Z,8732
2018-05-14T06:00:46.673Z,9140
2018-05-14T06:01:12.905Z,9536
2018-05-14T06:01:38.991Z,9720
2018-05-14T06:02:05.133Z,9700
2018-05-14T06:02:31.273Z,9772
2018-05-14T06:02:57.416Z,10016
2018-05-14T06:03:23.557Z,10520
2018-05-14T06:03:49.697Z,11136
2018-05-14T06:04:15.838Z,11812
2018-05-14T06:04:41.982Z,12180
2018-05-14T06:05:08.120Z,11944
2018-05-14T06:05:34.269Z,11756
2018-05-14T06:06:00.415Z,11716
2018-05-14T06:06:26.575Z,11780
2018-05-14T06:06:52.721Z,12036
2018-05-14T06:07:18.860Z,12296
2018-05-14T06:07:45.001Z,12444
2018-05-14T06:08:11.135Z,12296
2018-05-14T06:08:37.282Z,11868
2018-05-14T06:09:03.424Z,11928
2018-05-14T06:09:29.605Z,12764